Avvolovo, Russia

1:45 AM MSK on May 27, 2017 (GMT +0300)
Casa del Chaman, Okhta Park Cottage Settlement | | Change Station

Elev 121 ft 60.12 °N, 30.46 °E | Updated 4 minutes ago

Clear
Clear
45.5 °F
Feels Like 44 °F
N
3.1
Wind Variable Wind from SW
Gusts 3.8 mph

Today
High -- | Low -- °F
--% Chance of Precip.
Yesterday
High -- | Low -- °F
Precip. -- in
Pressure 29.98 in
Visibility -9999.0 miles
Clouds
Windchill 44 °F
Dew Point 34 °F
Humidity 64%
Rainfall 0.00 in
Snow Depth Not available.
3:54 AM 9:58 PM
New Moon, 2% visible
METAR ULLI 262230Z 04004MPS CAVOK 10/M01 Q1015 R10R/090060 NOSIG
Pressure 29.98 in
Visibility -9999.0 miles
Clouds
Windchill 44 °F
Dew Point 34 °F
Humidity 64%
Rainfall 0.00 in
Snow Depth Not available.
3:54 AM 9:58 PM
New Moon, 2% visible
METAR ULLI 262230Z 04004MPS CAVOK 10/M01 Q1015 R10R/090060 NOSIG

Get Severe Weather Alerts

Thanks for signing up!

Be on the lookout for a verification email in your inbox.

You'll start receiving the daily forecast at 6 AM.

×

10-Day Weather Forecast

×

Almanac

Astronomy

May. 27, 2017 Rise Set
Actual Time
Civil Twilight
Nautical Twilight
Astronomical Twilight
Moon
Length of Visible Light
Length of Day
Tomorrow will be .
, % of the Moon is Illuminated

Today's Extremes

Country Highs Country Lows

Community

WunderPhotos

Category 6

Welcome to Category 6. This is the collective home for Weather Underground's featured writeups by Dr. Jeff Masters (right), Bob Henson (left), Chris Burt, and other regular contributors.

Nearby

Air Quality

  Air Quality AQ Index Pollutant
Not available.

Snow Depth

Station Depth Elevation

Earthquake Activity

City Distance Mag. Time & Date
Minimum magnitude displayed is 2.5.

Coastal Water Temperatures

Place Temperature

Stations

Nearby Weather Stations

Station Location Temp. Windchill Dew Point Humidity Wind Precip. Elev Updated Type